Time;durP1;ratioP1;P1;durP2;ratioP2;P2;SDS_P1;SDS_P2;PMS_P1;PMS_P2;Temp;Humidity;BMP_temperature;BMP_pressure;BME280_temperature;BME280_humidity;BME280_pressure;Samples;Min_cycle;Max_cycle;Signal;HPM_P1;HPM_P2
2022/08/21 00:01:30;;;;;;;3.65;0.75;;;17.50;99.90;;;;;;5094132;28;20016;-73
2022/08/21 00:03:56;;;;;;;0.30;0.30;;;17.50;99.90;;;;;;5093896;28;20027;-73
2022/08/21 00:06:23;;;;;;;0.30;0.30;;;17.60;99.90;;;;;;5093941;28;20028;-76
2022/08/21 00:08:50;;;;;;;0.30;0.30;;;17.60;99.90;;;;;;5075796;28;20009;-78
2022/08/21 00:11:16;;;;;;;0.40;0.40;;;17.70;99.90;;;;;;5093699;28;20042;-74
2022/08/21 00:13:42;;;;;;;2.20;0.32;;;17.70;99.90;;;;;;5093691;28;20020;-75
2022/08/21 00:16:07;;;;;;;3.20;0.50;;;17.80;99.90;;;;;;5093666;28;20463;-73
2022/08/21 00:18:33;;;;;;;0.50;0.50;;;17.90;99.90;;;;;;5093632;28;20020;-73
2022/08/21 00:20:59;;;;;;;0.20;0.20;;;17.90;99.90;;;;;;5093429;28;20054;-74
2022/08/21 00:23:25;;;;;;;0.20;0.20;;;17.90;99.90;;;;;;5093008;28;20367;-75
2022/08/21 00:25:51;;;;;;;0.30;0.30;;;18.00;99.90;;;;;;5093750;28;20107;-73
2022/08/21 00:28:17;;;;;;;0.30;0.30;;;18.10;99.90;;;;;;5093152;28;20561;-74
2022/08/21 00:30:44;;;;;;;0.45;0.45;;;18.20;99.90;;;;;;5074981;28;20040;-75
2022/08/21 00:33:10;;;;;;;0.30;0.30;;;18.20;99.90;;;;;;5093536;28;20463;-77
2022/08/21 00:35:39;;;;;;;2.28;0.63;;;18.30;99.90;;;;;;5075066;28;20127;-76
2022/08/21 00:38:08;;;;;;;6.38;0.43;;;18.40;99.90;;;;;;5074878;28;20026;-72
2022/08/21 00:40:47;;;;;;;0.40;0.38;;;18.40;99.90;;;;;;5093095;28;20016;-72
2022/08/21 00:43:16;;;;;;;0.20;0.20;;;18.50;99.90;;;;;;5093226;28;20479;-77
2022/08/21 00:45:43;;;;;;;0.38;0.25;;;18.60;99.90;;;;;;5093285;28;20058;-72
2022/08/21 00:48:09;;;;;;;2.15;0.30;;;18.60;99.90;;;;;;5093264;28;20379;-72
2022/08/21 00:50:41;;;;;;;0.17;0.17;;;18.60;99.90;;;;;;5092905;28;20115;-73
2022/08/21 00:53:09;;;;;;;0.43;0.43;;;18.60;99.90;;;;;;5093449;28;20020;-72
2022/08/21 00:55:36;;;;;;;1.58;0.40;;;18.40;99.90;;;;;;5075038;28;20401;-76
2022/08/21 00:58:05;;;;;;;0.40;0.40;;;18.40;99.90;;;;;;5092728;28;20467;-74
2022/08/21 01:00:33;;;;;;;2.47;0.57;;;18.30;99.90;;;;;;5092914;28;20034;-78
2022/08/21 01:03:01;;;;;;;0.32;0.30;;;18.20;99.90;;;;;;5092738;28;20016;-73
2022/08/21 01:05:27;;;;;;;1.08;0.43;;;18.10;99.90;;;;;;5074605;28;20467;-75
2022/08/21 01:07:56;;;;;;;3.30;0.50;;;18.10;99.90;;;;;;5074684;28;20016;-73
2022/08/21 01:10:22;;;;;;;3.03;0.70;;;18.00;99.90;;;;;;5092758;28;20063;-72
2022/08/21 01:12:50;;;;;;;0.30;0.30;;;18.00;99.90;;;;;;5092790;28;20024;-75
2022/08/21 01:15:17;;;;;;;0.47;0.10;;;18.00;99.90;;;;;;5092577;28;20020;-75
2022/08/21 01:17:43;;;;;;;0.95;0.47;;;18.00;99.90;;;;;;5092438;28;20024;-76
2022/08/21 01:20:11;;;;;;;1.23;0.45;;;17.90;99.90;;;;;;5092375;28;20704;-77
2022/08/21 01:22:37;;;;;;;0.55;0.43;;;17.90;99.90;;;;;;5092622;28;20031;-72
2022/08/21 01:25:04;;;;;;;1.65;0.20;;;17.90;99.90;;;;;;5092537;28;20105;-73
2022/08/21 01:27:30;;;;;;;0.40;0.40;;;17.90;99.90;;;;;;5092424;28;20024;-76
2022/08/21 01:30:09;;;;;;;1.35;0.20;;;17.90;99.90;;;;;;5092428;28;20059;-75
2022/08/21 01:32:35;;;;;;;0.28;0.28;;;17.90;99.90;;;;;;5092289;28;20078;-76
2022/08/21 01:35:01;;;;;;;1.85;0.40;;;17.90;99.90;;;;;;5092083;28;20031;-73
2022/08/21 01:37:27;;;;;;;0.85;0.50;;;17.80;99.90;;;;;;5092416;28;20032;-73
2022/08/21 01:39:53;;;;;;;0.52;0.43;;;17.80;99.90;;;;;;5074445;28;20032;-78
2022/08/21 01:42:19;;;;;;;1.30;0.50;;;17.90;99.90;;;;;;5092418;28;20027;-77
2022/08/21 01:44:44;;;;;;;0.40;0.30;;;18.10;99.90;;;;;;5092498;28;20025;-72
2022/08/21 01:47:13;;;;;;;0.93;0.60;;;18.10;99.90;;;;;;5092423;28;20032;-73
2022/08/21 01:49:40;;;;;;;0.70;0.50;;;18.10;99.90;;;;;;5074304;28;20096;-72
2022/08/21 01:52:06;;;;;;;0.40;0.40;;;18.00;99.90;;;;;;5092164;28;20032;-77
2022/08/21 01:54:32;;;;;;;0.45;0.45;;;18.00;99.90;;;;;;5092115;28;20499;-73
2022/08/21 01:56:59;;;;;;;0.40;0.32;;;18.10;99.90;;;;;;5092087;28;20032;-74
2022/08/21 01:59:25;;;;;;;0.63;0.60;;;18.10;99.90;;;;;;5092246;28;20020;-76
2022/08/21 02:01:53;;;;;;;0.70;0.50;;;18.00;99.90;;;;;;5092109;28;20028;-77
2022/08/21 02:04:19;;;;;;;2.67;0.90;;;18.00;99.90;;;;;;5092130;28;20494;-76
2022/08/21 02:06:45;;;;;;;0.70;0.70;;;17.90;99.90;;;;;;5091855;28;20032;-73
2022/08/21 02:09:12;;;;;;;0.40;0.40;;;17.90;99.90;;;;;;5091931;28;20047;-76
2022/08/21 02:11:41;;;;;;;0.47;0.47;;;17.80;99.90;;;;;;5091636;28;20097;-74
2022/08/21 02:14:09;;;;;;;0.65;0.60;;;17.80;99.90;;;;;;5091964;28;20028;-74
2022/08/21 02:16:35;;;;;;;0.50;0.47;;;17.70;99.90;;;;;;5091602;28;20069;-73
2022/08/21 02:19:00;;;;;;;0.75;0.73;;;17.70;99.90;;;;;;5091811;28;20056;-74
2022/08/21 02:21:26;;;;;;;2.15;0.70;;;17.60;99.90;;;;;;5091756;28;20487;-74
2022/08/21 02:23:52;;;;;;;1.10;0.68;;;17.70;99.90;;;;;;5091946;28;20036;-72
2022/08/21 02:26:17;;;;;;;0.40;0.40;;;17.70;99.90;;;;;;5091917;28;20054;-73
2022/08/21 02:28:43;;;;;;;0.82;0.80;;;17.70;99.90;;;;;;5073885;28;20165;-73
2022/08/21 02:31:10;;;;;;;0.47;0.47;;;17.70;99.90;;;;;;5091961;28;20036;-73
2022/08/21 02:33:35;;;;;;;0.60;0.60;;;17.80;99.90;;;;;;5073916;28;20020;-73
2022/08/21 02:36:03;;;;;;;0.63;0.40;;;17.80;99.90;;;;;;5092256;28;20019;-72
2022/08/21 02:38:34;;;;;;;0.73;0.73;;;17.90;99.90;;;;;;5091853;28;20027;-76
2022/08/21 02:40:59;;;;;;;0.63;0.63;;;17.80;99.90;;;;;;5091890;28;20044;-73
2022/08/21 02:43:27;;;;;;;1.63;0.75;;;17.80;99.90;;;;;;5091910;28;20052;-74
2022/08/21 02:45:54;;;;;;;2.90;0.70;;;17.70;99.90;;;;;;5094092;28;20020;-75
2022/08/21 02:48:23;;;;;;;0.47;0.45;;;17.70;99.90;;;;;;5095350;28;20366;-74
2022/08/21 02:50:53;;;;;;;1.00;0.63;;;17.70;99.90;;;;;;5095346;28;20040;-77
2022/08/21 02:53:19;;;;;;;0.63;0.60;;;17.60;99.90;;;;;;5095310;28;20028;-78
2022/08/21 02:55:47;;;;;;;3.45;0.47;;;17.60;99.90;;;;;;5095294;28;20028;-74
2022/08/21 02:58:15;;;;;;;1.30;0.65;;;17.50;99.90;;;;;;5076906;28;20024;-74
2022/08/21 03:00:43;;;;;;;4.30;0.80;;;17.40;99.90;;;;;;5095024;28;20111;-76
2022/08/21 03:03:09;;;;;;;3.53;1.35;;;17.40;99.90;;;;;;5095115;28;20024;-74
2022/08/21 03:05:39;;;;;;;2.55;0.80;;;17.20;99.90;;;;;;5094855;28;20055;-74
2022/08/21 03:08:10;;;;;;;3.50;0.75;;;17.10;99.90;;;;;;5094872;28;20032;-76
2022/08/21 03:10:39;;;;;;;1.13;0.75;;;17.10;99.90;;;;;;5077467;28;20032;-74
2022/08/21 03:13:05;;;;;;;2.35;0.88;;;16.90;99.90;;;;;;5094611;28;20087;-75
2022/08/21 03:15:31;;;;;;;2.15;0.50;;;16.80;99.90;;;;;;5094871;28;20020;-74
2022/08/21 03:17:57;;;;;;;1.17;0.60;;;16.80;99.90;;;;;;5076418;28;20379;-74
2022/08/21 03:20:26;;;;;;;3.88;0.90;;;16.80;99.90;;;;;;5094522;28;20047;-73
2022/08/21 03:22:53;;;;;;;4.75;1.00;;;16.70;99.90;;;;;;5076469;28;20036;-73
2022/08/21 03:25:20;;;;;;;0.52;0.52;;;16.70;99.90;;;;;;5094481;28;20023;-73
2022/08/21 03:27:48;;;;;;;1.10;0.70;;;16.70;99.90;;;;;;5076232;28;20036;-75
2022/08/21 03:30:17;;;;;;;5.97;0.95;;;16.70;99.90;;;;;;5094349;28;20095;-74
2022/08/21 03:32:42;;;;;;;1.08;0.80;;;16.60;99.90;;;;;;5076433;28;20380;-74
2022/08/21 03:35:09;;;;;;;1.55;1.00;;;16.60;99.90;;;;;;5094194;28;20094;-76
2022/08/21 03:37:35;;;;;;;0.70;0.70;;;16.60;99.90;;;;;;5076039;28;20383;-77
2022/08/21 03:40:04;;;;;;;2.15;1.00;;;16.50;99.90;;;;;;5094368;28;20039;-76
2022/08/21 03:42:29;;;;;;;2.80;2.15;;;16.50;99.90;;;;;;5093972;28;20065;-74
2022/08/21 03:44:55;;;;;;;0.65;0.65;;;16.50;99.90;;;;;;5094404;28;20024;-74
2022/08/21 03:47:21;;;;;;;0.98;0.90;;;16.40;99.90;;;;;;5093871;28;20020;-73
2022/08/21 03:49:47;;;;;;;2.70;0.73;;;16.40;99.90;;;;;;5094047;28;20028;-75
2022/08/21 03:52:13;;;;;;;3.40;1.10;;;16.40;99.90;;;;;;5075957;28;20032;-75
2022/08/21 03:54:40;;;;;;;0.45;0.45;;;16.30;99.90;;;;;;5093879;28;20020;-73
2022/08/21 03:57:06;;;;;;;7.22;0.90;;;16.30;99.90;;;;;;5093085;28;20016;-76
2022/08/21 03:59:32;;;;;;;0.60;0.60;;;16.30;99.90;;;;;;5093824;28;20024;-76
2022/08/21 04:02:01;;;;;;;1.13;0.70;;;16.20;99.90;;;;;;5093792;28;20154;-76
2022/08/21 04:04:28;;;;;;;2.30;0.88;;;16.20;99.90;;;;;;5093698;28;20020;-74
2022/08/21 04:06:55;;;;;;;1.42;1.33;;;16.20;99.90;;;;;;5093700;28;20093;-75
2022/08/21 04:09:21;;;;;;;3.65;1.30;;;16.10;99.90;;;;;;5093904;28;20159;-74
2022/08/21 04:11:47;;;;;;;0.80;0.73;;;16.10;99.90;;;;;;5075417;28;20384;-78
2022/08/21 04:14:14;;;;;;;1.67;1.58;;;16.60;99.90;;;;;;5093889;28;20020;-78
2022/08/21 04:16:41;;;;;;;1.13;0.80;;;17.40;99.90;;;;;;5074772;28;20035;-77
2022/08/21 04:19:07;;;;;;;0.95;0.77;;;18.00;99.90;;;;;;5094106;28;20039;-76
2022/08/21 04:21:33;;;;;;;1.02;0.85;;;18.40;99.90;;;;;;5095813;28;20054;-78
2022/08/21 04:23:59;;;;;;;0.57;0.57;;;18.70;99.90;;;;;;5093677;28;20024;-77
2022/08/21 04:26:26;;;;;;;0.85;0.68;;;18.70;99.90;;;;;;5093791;28;20034;-76
2022/08/21 04:28:52;;;;;;;3.20;1.15;;;18.70;99.90;;;;;;5093558;28;20078;-79
2022/08/21 04:31:18;;;;;;;0.85;0.77;;;18.80;99.90;;;;;;5093673;28;20032;-78
2022/08/21 04:33:44;;;;;;;2.03;0.70;;;19.00;99.90;;;;;;5093777;28;20135;-76
2022/08/21 04:36:11;;;;;;;0.63;0.63;;;19.00;99.90;;;;;;5093681;28;20012;-78
2022/08/21 04:38:37;;;;;;;1.13;0.70;;;19.00;99.90;;;;;;5098442;28;20028;-78
2022/08/21 04:41:05;;;;;;;0.55;0.55;;;19.20;99.90;;;;;;5093593;28;20028;-77
2022/08/21 04:43:31;;;;;;;1.85;0.70;;;19.20;99.90;;;;;;5075529;28;20098;-77
2022/08/21 04:45:56;;;;;;;1.30;1.20;;;19.20;99.90;;;;;;5075521;28;20103;-78
2022/08/21 04:48:25;;;;;;;0.40;0.40;;;19.20;99.90;;;;;;5075367;28;20008;-77
2022/08/21 04:51:01;;;;;;;1.17;0.70;;;19.30;99.90;;;;;;5074991;28;20039;-78
2022/08/21 04:53:36;;;;;;;5.05;0.60;;;19.30;99.90;;;;;;5076016;28;20046;-77
2022/08/21 04:56:08;;;;;;;0.65;0.60;;;19.20;99.90;;;;;;5093287;28;20020;-77
2022/08/21 04:58:36;;;;;;;0.52;0.52;;;19.10;99.90;;;;;;5074831;28;20035;-77
2022/08/21 05:01:04;;;;;;;0.77;0.77;;;19.10;99.90;;;;;;5093124;28;20016;-77
2022/08/21 05:03:32;;;;;;;2.38;0.73;;;18.90;99.90;;;;;;5093098;28;20020;-76
2022/08/21 05:05:59;;;;;;;2.63;0.88;;;18.70;99.90;;;;;;5092887;28;20368;-77
2022/08/21 05:08:26;;;;;;;1.33;0.60;;;18.70;99.90;;;;;;5092789;28;20035;-76
2022/08/21 05:10:52;;;;;;;0.63;0.63;;;18.50;99.90;;;;;;5092769;28;20031;-78
2022/08/21 05:13:18;;;;;;;0.77;0.60;;;18.50;99.90;;;;;;5093010;28;20024;-76
2022/08/21 05:15:44;;;;;;;1.10;1.00;;;18.50;99.90;;;;;;5092862;28;20367;-78
2022/08/21 05:18:10;;;;;;;0.73;0.73;;;18.50;99.90;;;;;;5092596;28;20036;-77
2022/08/21 05:20:36;;;;;;;0.95;0.90;;;18.80;99.90;;;;;;5092717;28;20127;-75
2022/08/21 05:23:08;;;;;;;0.88;0.88;;;18.90;99.90;;;;;;5092981;28;20020;-75
2022/08/21 05:25:33;;;;;;;1.42;0.93;;;18.70;99.90;;;;;;5092769;28;20031;-72
2022/08/21 05:27:59;;;;;;;2.22;0.68;;;18.50;99.90;;;;;;5092600;28;20402;-74
2022/08/21 05:30:25;;;;;;;0.63;0.63;;;18.30;99.90;;;;;;5092575;28;20097;-74
2022/08/21 05:32:59;;;;;;;5.53;1.00;;;18.30;99.90;;;;;;5092481;28;20371;-74
2022/08/21 05:35:26;;;;;;;1.27;0.93;;;18.20;99.90;;;;;;5092846;28;20020;-72
2022/08/21 05:37:52;;;;;;;1.00;0.90;;;18.10;99.90;;;;;;5092625;28;20413;-74
2022/08/21 05:40:18;;;;;;;1.38;1.25;;;18.00;99.90;;;;;;5092602;28;20089;-75
2022/08/21 05:42:44;;;;;;;1.33;1.02;;;17.90;99.90;;;;;;5092839;28;20040;-75
2022/08/21 05:45:10;;;;;;;0.65;0.65;;;17.90;99.90;;;;;;5092619;28;20024;-74
2022/08/21 05:47:36;;;;;;;0.98;0.85;;;17.90;99.90;;;;;;5092385;28;20148;-75
2022/08/21 05:50:02;;;;;;;3.28;1.02;;;17.90;99.90;;;;;;5092332;28;20564;-74
2022/08/21 05:52:28;;;;;;;2.90;0.95;;;18.00;99.90;;;;;;5092582;28;20032;-75
2022/08/21 05:54:53;;;;;;;1.23;1.13;;;18.00;99.90;;;;;;5092418;28;20463;-74
2022/08/21 05:57:21;;;;;;;2.13;0.90;;;18.10;99.90;;;;;;5092395;28;20464;-75
2022/08/21 05:59:47;;;;;;;1.25;1.05;;;18.20;99.90;;;;;;5092203;28;20024;-77
2022/08/21 06:02:13;;;;;;;1.60;1.20;;;18.30;99.90;;;;;;5074317;28;20039;-73
2022/08/21 06:04:39;;;;;;;0.80;0.68;;;18.40;99.90;;;;;;5092221;28;20040;-74
2022/08/21 06:07:05;;;;;;;0.98;0.98;;;18.50;99.90;;;;;;5092313;28;20035;-74
2022/08/21 06:09:31;;;;;;;1.00;0.90;;;18.60;99.90;;;;;;5092787;28;20469;-74
2022/08/21 06:11:56;;;;;;;0.90;0.82;;;18.70;99.90;;;;;;5092512;28;20063;-75
2022/08/21 06:14:22;;;;;;;1.15;0.70;;;18.90;99.90;;;;;;5092404;28;20028;-74
2022/08/21 06:16:48;;;;;;;1.42;1.27;;;19.00;99.90;;;;;;5073920;28;20482;-74
2022/08/21 06:19:13;;;;;;;1.05;0.80;;;19.20;99.90;;;;;;5092444;28;20423;-74
2022/08/21 06:21:39;;;;;;;1.45;0.90;;;19.30;99.90;;;;;;5096360;28;20400;-74
2022/08/21 06:24:06;;;;;;;3.05;1.00;;;19.40;99.90;;;;;;5096440;28;20111;-74
2022/08/21 06:26:32;;;;;;;0.50;0.50;;;19.50;99.90;;;;;;5096125;28;20111;-74
2022/08/21 06:28:58;;;;;;;0.90;0.90;;;19.50;99.90;;;;;;5078038;28;20039;-74
2022/08/21 06:31:26;;;;;;;1.02;0.68;;;19.50;99.90;;;;;;5096152;28;20475;-73
2022/08/21 06:33:52;;;;;;;1.65;0.93;;;19.60;99.90;;;;;;5096036;28;20024;-74
2022/08/21 06:36:20;;;;;;;0.40;0.40;;;19.70;99.90;;;;;;5096148;28;20463;-74
2022/08/21 06:38:46;;;;;;;0.63;0.47;;;19.80;99.90;;;;;;5096068;28;20028;-75
2022/08/21 06:41:12;;;;;;;1.15;0.45;;;19.80;99.90;;;;;;5096205;28;20027;-75
2022/08/21 06:43:38;;;;;;;3.20;0.63;;;19.90;99.90;;;;;;5095921;28;20099;-78
2022/08/21 06:46:03;;;;;;;0.90;0.52;;;20.00;99.90;;;;;;5096154;28;20096;-78
2022/08/21 06:48:31;;;;;;;0.50;0.50;;;20.10;99.90;;;;;;5095908;28;20027;-78
2022/08/21 06:51:01;;;;;;;0.68;0.68;;;20.20;99.90;;;;;;5095875;28;20035;-76
2022/08/21 06:53:27;;;;;;;0.80;0.68;;;20.30;99.90;;;;;;5077762;28;20051;-79
2022/08/21 06:55:52;;;;;;;0.75;0.70;;;20.30;99.90;;;;;;5096028;28;20028;-78
2022/08/21 06:58:19;;;;;;;3.65;0.50;;;20.40;99.90;;;;;;5095863;28;20421;-77
2022/08/21 07:00:47;;;;;;;0.98;0.70;;;20.40;99.90;;;;;;5095530;28;20044;-80
2022/08/21 07:03:25;;;;;;;0.43;0.40;;;20.40;99.90;;;;;;5095777;28;20024;-78
2022/08/21 07:05:51;;;;;;;1.38;0.50;;;20.50;99.90;;;;;;5077432;28;20111;-80
2022/08/21 07:08:17;;;;;;;0.93;0.60;;;20.50;99.90;;;;;;5077403;28;20059;-78
2022/08/21 07:10:43;;;;;;;0.50;0.50;;;20.60;99.90;;;;;;5094808;28;20067;-77
2022/08/21 07:13:09;;;;;;;0.50;0.50;;;20.60;99.90;;;;;;5095306;28;20027;-79
2022/08/21 07:15:35;;;;;;;0.52;0.52;;;20.80;99.90;;;;;;5076872;28;20050;-80
2022/08/21 07:18:01;;;;;;;0.65;0.65;;;20.90;99.90;;;;;;5095346;28;20088;-79
2022/08/21 07:20:28;;;;;;;0.45;0.35;;;20.90;99.90;;;;;;5094592;28;20101;-77
2022/08/21 07:22:55;;;;;;;0.85;0.68;;;21.00;99.90;;;;;;5095455;28;20012;-79
2022/08/21 07:25:21;;;;;;;1.00;0.90;;;21.10;99.90;;;;;;5095454;28;20074;-79
2022/08/21 07:27:47;;;;;;;4.10;1.83;;;21.20;99.90;;;;;;5095439;28;20475;-78
2022/08/21 07:30:12;;;;;;;0.50;0.50;;;21.40;99.90;;;;;;5095201;28;20039;-78
2022/08/21 07:32:38;;;;;;;1.00;1.00;;;21.40;99.90;;;;;;5094280;28;20107;-79
2022/08/21 07:35:04;;;;;;;1.02;1.00;;;21.50;99.90;;;;;;5095155;28;20024;-77
2022/08/21 07:37:30;;;;;;;0.68;0.68;;;21.60;99.90;;;;;;5095107;28;20081;-79
2022/08/21 07:39:56;;;;;;;0.35;0.30;;;21.70;99.90;;;;;;5095232;28;20020;-79
2022/08/21 07:42:21;;;;;;;3.25;0.57;;;21.80;99.90;;;;;;5094884;28;20051;-78
2022/08/21 07:44:47;;;;;;;0.30;0.30;;;21.90;99.90;;;;;;5094860;28;20052;-79
2022/08/21 07:47:13;;;;;;;0.45;0.25;;;21.90;99.90;;;;;;5094857;28;20027;-79
2022/08/21 07:49:39;;;;;;;0.20;0.20;;;21.90;99.90;;;;;;5094269;28;20035;-78
2022/08/21 07:52:05;;;;;;;0.40;0.40;;;21.90;99.90;;;;;;5094363;28;20047;-78
2022/08/21 07:54:31;;;;;;;0.30;0.30;;;21.90;99.90;;;;;;5076368;28;20367;-78
2022/08/21 07:56:56;;;;;;;1.23;0.50;;;22.00;99.90;;;;;;5094602;28;20027;-80
2022/08/21 07:59:22;;;;;;;0.47;0.20;;;22.00;99.90;;;;;;5093975;28;20028;-79
2022/08/21 08:01:48;;;;;;;1.48;0.25;;;22.10;99.90;;;;;;5094595;28;20039;-77
2022/08/21 08:04:15;;;;;;;0.65;0.22;;;22.10;99.90;;;;;;5094488;28;20016;-77
2022/08/21 08:06:41;;;;;;;0.40;0.40;;;22.20;99.90;;;;;;5094362;28;20024;-77
2022/08/21 08:09:07;;;;;;;0.38;0.38;;;22.20;99.90;;;;;;5094288;28;20483;-80
2022/08/21 08:11:33;;;;;;;1.27;0.40;;;22.20;99.90;;;;;;5094492;28;20028;-77
2022/08/21 08:13:59;;;;;;;0.20;0.20;;;22.30;99.90;;;;;;5094183;28;20404;-76
2022/08/21 08:16:25;;;;;;;0.70;0.40;;;22.30;99.90;;;;;;5093387;28;20464;-77
2022/08/21 08:18:51;;;;;;;1.00;0.30;;;22.30;99.90;;;;;;5093567;28;20381;-78
2022/08/21 08:21:20;;;;;;;6.43;3.30;;;22.20;99.90;;;;;;5094094;28;20048;-81
2022/08/21 08:23:46;;;;;;;23.67;13.95;;;22.20;99.90;;;;;;5094142;28;20035;-80
2022/08/21 08:26:12;;;;;;;10.93;5.13;;;22.20;99.90;;;;;;5094113;28;20024;-79
2022/08/21 08:28:38;;;;;;;1.83;1.60;;;22.20;99.90;;;;;;5094190;28;20414;-78
2022/08/21 08:31:04;;;;;;;1.40;0.60;;;22.10;99.90;;;;;;5093911;28;20066;-78
2022/08/21 08:33:30;;;;;;;0.57;0.40;;;22.00;99.90;;;;;;5093718;28;20099;-77
2022/08/21 08:35:55;;;;;;;0.77;0.77;;;22.00;99.90;;;;;;5093951;28;20511;-78
2022/08/21 08:38:24;;;;;;;0.32;0.32;;;22.00;99.90;;;;;;5093665;28;20028;-79
2022/08/21 08:40:59;;;;;;;0.30;0.30;;;22.10;99.90;;;;;;5093392;28;20020;-78
2022/08/21 08:43:28;;;;;;;0.75;0.75;;;22.10;99.90;;;;;;5092673;28;20019;-79
2022/08/21 08:45:55;;;;;;;0.35;0.32;;;22.10;99.90;;;;;;5093296;28;20020;-81
2022/08/21 08:48:51;;;;;;;0.52;0.47;;;22.10;99.90;;;;;;5093482;28;20027;-80
2022/08/21 08:51:30;;;;;;;0.57;0.30;;;22.20;99.90;;;;;;5085135;28;20436;-75
2022/08/21 08:54:02;;;;;;;0.25;0.22;;;22.20;99.90;;;;;;5093448;28;20119;-80
2022/08/21 08:56:30;;;;;;;0.32;0.30;;;22.20;99.90;;;;;;5093524;28;20028;-77
2022/08/21 08:59:06;;;;;;;0.30;0.30;;;22.20;99.90;;;;;;5092787;28;20020;-79
2022/08/21 09:01:32;;;;;;;0.47;0.43;;;22.30;99.90;;;;;;5092901;28;20020;-80
2022/08/21 09:03:58;;;;;;;3.45;0.70;;;22.30;99.90;;;;;;5093265;28;20437;-81
2022/08/21 09:06:53;;;;;;;2.28;0.32;;;22.50;99.90;;;;;;5093400;28;20024;-78
2022/08/21 09:09:36;;;;;;;0.40;0.40;;;22.50;99.90;;;;;;5074873;28;20409;-80
2022/08/21 09:12:11;;;;;;;0.50;0.50;;;22.60;99.90;;;;;;5092655;28;20490;-77
2022/08/21 09:15:08;;;;;;;0.68;0.68;;;22.70;99.90;;;;;;5093388;28;20070;-76
2022/08/21 09:17:59;;;;;;;6.20;0.55;;;22.90;99.80;;;;;;5075279;28;20039;-78
2022/08/21 09:21:02;;;;;;;0.55;0.47;;;23.00;99.30;;;;;;5092642;28;20044;-80
2022/08/21 09:23:53;;;;;;;0.50;0.50;;;23.20;98.20;;;;;;5092935;28;20020;-79
2022/08/21 09:26:23;;;;;;;0.85;0.60;;;23.30;98.70;;;;;;5093017;28;20035;-77
2022/08/21 09:28:55;;;;;;;1.23;0.45;;;23.40;98.50;;;;;;5093100;28;20028;-79
2022/08/21 09:31:30;;;;;;;1.25;0.47;;;23.50;98.80;;;;;;5092918;28;20032;-80
2022/08/21 09:34:24;;;;;;;1.45;0.40;;;23.60;98.50;;;;;;5093042;28;20096;-79
2022/08/21 09:36:50;;;;;;;2.35;0.50;;;23.80;97.80;;;;;;5093010;28;20098;-77
2022/08/21 09:39:32;;;;;;;0.28;0.28;;;23.90;98.10;;;;;;5092965;28;20020;-79
2022/08/21 09:42:06;;;;;;;0.52;0.40;;;23.90;96.10;;;;;;5074978;28;20028;-79
2022/08/21 09:44:40;;;;;;;1.00;0.45;;;24.00;96.20;;;;;;5092706;28;20028;-78
2022/08/21 09:47:08;;;;;;;0.40;0.40;;;23.90;95.00;;;;;;5092828;28;20478;-81
2022/08/21 09:49:38;;;;;;;1.10;0.68;;;24.10;95.20;;;;;;5092706;28;20023;-79
2022/08/21 09:52:16;;;;;;;0.22;0.22;;;24.20;96.20;;;;;;5092791;28;20064;-79
2022/08/21 09:54:45;;;;;;;0.30;0.30;;;24.40;94.20;;;;;;5093258;28;20375;-79
2022/08/21 09:57:46;;;;;;;0.95;0.30;;;24.50;93.50;;;;;;5096662;28;20052;-77
2022/08/21 10:00:31;;;;;;;0.32;0.30;;;24.70;92.60;;;;;;5096876;28;20031;-77
2022/08/21 10:03:18;;;;;;;2.72;0.40;;;24.70;91.70;;;;;;5096626;28;20459;-75
2022/08/21 10:06:20;;;;;;;0.30;0.30;;;24.60;91.20;;;;;;5096579;28;20031;-77
2022/08/21 10:08:46;;;;;;;0.40;0.40;;;24.70;91.00;;;;;;5096270;28;20032;-79
2022/08/21 10:11:14;;;;;;;0.30;0.30;;;24.80;90.20;;;;;;5096535;28;20129;-78
2022/08/21 10:14:04;;;;;;;0.30;0.30;;;24.80;87.40;;;;;;5096449;28;20016;-79
2022/08/21 10:17:01;;;;;;;0.22;0.22;;;24.80;87.70;;;;;;5096414;28;20023;-79
2022/08/21 10:20:00;;;;;;;0.35;0.28;;;24.90;86.60;;;;;;5096645;28;20020;-79
2022/08/21 10:23:13;;;;;;;2.17;0.40;;;25.00;85.40;;;;;;5096153;28;20036;-75
2022/08/21 10:25:54;;;;;;;0.22;0.22;;;25.20;85.30;;;;;;5088672;28;20085;-75
2022/08/21 10:28:49;;;;;;;0.40;0.40;;;25.30;84.00;;;;;;5095700;28;20374;-76
2022/08/21 10:31:51;;;;;;;0.10;0.10;;;25.30;83.90;;;;;;5087938;28;20055;-74
2022/08/21 10:34:42;;;;;;;0.30;0.30;;;25.40;82.90;;;;;;5057068;28;20031;-75
2022/08/21 10:37:20;;;;;;;1.25;0.30;;;25.60;82.80;;;;;;5077375;28;20039;-78
2022/08/21 10:40:01;;;;;;;0.20;0.20;;;25.70;82.80;;;;;;5095741;28;20028;-77
2022/08/21 10:42:47;;;;;;;0.73;0.40;;;25.70;81.00;;;;;;5095562;28;20468;-78
2022/08/21 10:45:36;;;;;;;0.03;0.03;;;25.80;82.00;;;;;;5094956;28;20066;-77
2022/08/21 10:48:07;;;;;;;0.45;0.13;;;25.70;81.50;;;;;;5055274;28;20032;-78
2022/08/21 10:50:33;;;;;;;0.15;0.10;;;25.70;80.30;;;;;;5095439;28;20123;-77
2022/08/21 10:53:07;;;;;;;0.20;0.10;;;25.70;79.10;;;;;;5094944;28;20107;-79
2022/08/21 10:55:52;;;;;;;0.52;0.52;;;25.60;79.00;;;;;;5094964;28;20020;-80
2022/08/21 10:58:36;;;;;;;0.20;0.20;;;25.70;80.30;;;;;;5077284;28;20024;-78
2022/08/21 11:01:34;;;;;;;0.70;0.17;;;25.40;79.30;;;;;;5095605;28;20032;-79
2022/08/21 11:04:17;;;;;;;0.10;0.10;;;25.40;79.70;;;;;;5084351;28;20028;-80
2022/08/21 11:06:48;;;;;;;0.10;0.10;;;25.30;79.40;;;;;;5095319;28;20479;-77
2022/08/21 11:09:18;;;;;;;2.10;0.45;;;25.20;81.30;;;;;;5077399;28;20032;-77
2022/08/21 11:12:10;;;;;;;0.40;0.38;;;24.90;82.40;;;;;;5095333;28;20463;-80
2022/08/21 11:15:02;;;;;;;1.30;0.30;;;24.80;81.50;;;;;;5095405;28;20468;-79
2022/08/21 11:17:38;;;;;;;0.75;0.75;;;24.80;82.30;;;;;;5095174;28;20024;-79
2022/08/21 11:20:21;;;;;;;0.20;0.20;;;24.80;83.90;;;;;;5095062;28;20016;-77
2022/08/21 11:22:57;;;;;;;0.17;0.17;;;24.90;82.50;;;;;;5077196;28;20027;-80
2022/08/21 11:25:35;;;;;;;1.23;0.10;;;24.90;80.60;;;;;;5091878;28;20020;-80
2022/08/21 11:28:33;;;;;;;0.05;0.05;;;25.00;81.00;;;;;;5093881;28;20020;-80
2022/08/21 11:31:22;;;;;;;1.88;0.20;;;24.90;79.70;;;;;;5083953;28;20044;-78
2022/08/21 11:34:24;;;;;;;0.20;0.20;;;25.00;80.60;;;;;;5094916;28;20028;-78
2022/08/21 11:37:16;;;;;;;0.47;0.25;;;25.10;80.00;;;;;;5094794;28;20586;-80
2022/08/21 11:39:51;;;;;;;0.10;0.10;;;25.20;79.70;;;;;;5094874;28;20023;-77
2022/08/21 11:42:31;;;;;;;0.10;0.10;;;25.50;79.90;;;;;;5094376;28;20460;-78
2022/08/21 11:45:38;;;;;;;0.10;0.10;;;25.70;80.00;;;;;;5094753;28;20456;-78
2022/08/21 11:48:33;;;;;;;0.28;0.20;;;26.00;88.20;;;;;;5094060;28;20119;-78
2022/08/21 11:51:03;;;;;;;0.10;0.10;;;26.00;80.70;;;;;;5094406;28;20467;-80
2022/08/21 11:53:37;;;;;;;0.22;0.15;;;26.10;77.50;;;;;;5076349;28;20046;-78
2022/08/21 11:56:14;;;;;;;1.63;0.10;;;26.20;75.80;;;;;;5094892;28;20031;-78
2022/08/21 11:58:55;;;;;;;0.20;0.20;;;26.30;75.50;;;;;;5094430;28;20021;-78
2022/08/21 12:01:30;;;;;;;0.10;0.10;;;26.40;75.00;;;;;;5075873;28;20059;-80
2022/08/21 12:03:55;;;;;;;;;;;26.50;74.40;;;;;;5094565;28;20016;-76
2022/08/21 12:06:36;;;;;;;0.13;0.13;;;26.50;74.40;;;;;;5093781;28;19957;-77
2022/08/21 12:09:09;;;;;;;0.03;0.03;;;26.50;75.90;;;;;;5094133;28;20025;-75
2022/08/21 12:11:48;;;;;;;0.20;0.13;;;26.50;75.30;;;;;;5093985;28;20467;-76
2022/08/21 12:14:16;;;;;;;0.10;0.10;;;26.40;74.20;;;;;;5075865;28;20081;-80
2022/08/21 12:16:45;;;;;;;0.10;0.10;;;26.30;75.40;;;;;;5075825;28;20115;-79
2022/08/21 12:19:30;;;;;;;0.00;0.00;;;26.40;73.80;;;;;;5093541;28;20019;-77
2022/08/21 12:21:58;;;;;;;0.27;0.10;;;26.50;73.30;;;;;;5076144;28;20040;-76
2022/08/21 12:24:27;;;;;;;0.00;0.00;;;26.50;73.70;;;;;;5072344;28;20367;-75
2022/08/21 12:26:54;;;;;;;0.10;0.10;;;26.70;75.30;;;;;;5073500;28;20021;-79
2022/08/21 12:29:37;;;;;;;0.10;0.10;;;26.70;84.00;;;;;;5073236;28;20027;-77
2022/08/21 12:32:14;;;;;;;0.35;0.30;;;26.80;81.60;;;;;;5073409;28;20036;-79
2022/08/21 12:35:00;;;;;;;0.85;0.10;;;26.60;73.60;;;;;;5073633;28;20028;-76
2022/08/21 12:37:49;;;;;;;0.10;0.10;;;26.40;73.30;;;;;;5073067;28;20036;-78
2022/08/21 12:40:41;;;;;;;1.55;0.17;;;26.30;74.20;;;;;;5073347;28;20109;-76
2022/08/21 12:43:19;;;;;;;0.45;0.00;;;26.30;72.90;;;;;;5073234;28;20350;-78
2022/08/21 12:45:47;;;;;;;0.05;0.05;;;26.10;72.90;;;;;;5073278;28;20067;-78
2022/08/21 12:48:29;;;;;;;0.00;0.00;;;26.00;73.50;;;;;;5072977;28;20241;-76
2022/08/21 12:50:57;;;;;;;0.00;0.00;;;25.90;73.80;;;;;;5072777;28;20033;-75
2022/08/21 12:53:39;;;;;;;0.10;0.10;;;25.90;73.60;;;;;;5073054;28;20174;-77
2022/08/21 12:56:10;;;;;;;0.10;0.10;;;25.90;74.10;;;;;;5073180;28;20407;-76
2022/08/21 12:58:39;;;;;;;0.10;0.10;;;25.80;74.20;;;;;;5072728;28;20463;-77
2022/08/21 13:01:12;;;;;;;0.17;0.10;;;25.90;74.70;;;;;;5073089;28;20040;-76
2022/08/21 13:03:38;;;;;;;0.10;0.10;;;25.90;74.40;;;;;;5073595;28;20021;-77
2022/08/21 13:06:06;;;;;;;0.00;0.00;;;25.80;74.40;;;;;;5074138;28;20031;-78
2022/08/21 13:08:38;;;;;;;0.10;0.10;;;25.80;75.30;;;;;;5073906;28;20021;-76